createdAt,value
2024-04-30T00:00:56.554Z,15.03
2024-04-30T00:03:24.035Z,14.82
2024-04-30T00:05:50.947Z,14.37
2024-04-30T00:08:17.910Z,14.43
2024-04-30T00:10:44.929Z,14.58
2024-04-30T00:13:15.917Z,14.67
2024-04-30T00:15:48.690Z,14.59
2024-04-30T00:18:16.802Z,14.35
2024-04-30T00:20:49.571Z,14.39
2024-04-30T00:23:17.086Z,14.30
2024-04-30T00:25:44.074Z,14.24
2024-04-30T00:28:20.642Z,14.26
2024-04-30T00:30:47.628Z,14.52
2024-04-30T00:33:17.558Z,14.73
2024-04-30T00:35:45.060Z,14.67
2024-04-30T00:38:12.982Z,14.55
2024-04-30T00:40:42.936Z,14.44
2024-04-30T00:43:10.167Z,14.57
2024-04-30T00:45:43.955Z,14.44
2024-04-30T00:48:14.287Z,14.47
2024-04-30T00:50:41.537Z,14.47
2024-04-30T00:53:12.366Z,14.59
2024-04-30T00:55:40.080Z,14.67
2024-04-30T00:58:07.712Z,14.35
2024-04-30T01:00:37.982Z,14.26
2024-04-30T01:03:08.650Z,14.41
2024-04-30T01:05:37.624Z,14.47
2024-04-30T01:08:04.689Z,14.39
2024-04-30T01:10:31.774Z,14.51
2024-04-30T01:13:10.107Z,14.50
2024-04-30T01:15:37.282Z,14.59
2024-04-30T01:18:07.348Z,14.69
2024-04-30T01:20:35.676Z,14.69
2024-04-30T01:23:09.830Z,14.63
2024-04-30T01:25:36.478Z,14.49
2024-04-30T01:28:03.386Z,14.51
2024-04-30T01:30:30.404Z,14.51
2024-04-30T01:32:57.179Z,14.55
2024-04-30T01:35:25.744Z,14.53
2024-04-30T01:37:52.977Z,14.26
2024-04-30T01:40:20.552Z,14.41
2024-04-30T01:42:49.039Z,14.45
2024-04-30T01:45:15.568Z,14.28
2024-04-30T01:47:42.236Z,14.17
2024-04-30T01:50:16.365Z,14.13
2024-04-30T01:52:42.971Z,14.24
2024-04-30T01:55:10.450Z,14.24
2024-04-30T01:57:40.028Z,14.21
2024-04-30T02:00:06.876Z,14.19
2024-04-30T02:02:36.673Z,14.29
2024-04-30T02:05:10.898Z,14.14
2024-04-30T02:07:43.444Z,14.00
2024-04-30T02:10:10.150Z,14.15
2024-04-30T02:12:36.714Z,14.26
2024-04-30T02:15:03.309Z,14.19
2024-04-30T02:17:30.055Z,14.09
2024-04-30T02:19:56.664Z,13.91
2024-04-30T02:22:23.779Z,14.04
2024-04-30T02:24:50.773Z,14.10
2024-04-30T02:27:20.692Z,14.02
2024-04-30T02:29:47.638Z,13.94
2024-04-30T02:32:14.726Z,13.99
2024-04-30T02:34:42.776Z,13.68
2024-04-30T02:37:15.855Z,13.81
2024-04-30T02:39:42.830Z,13.87
2024-04-30T02:42:10.065Z,13.90
2024-04-30T02:44:37.272Z,13.75
2024-04-30T02:47:13.568Z,13.60
2024-04-30T02:49:46.526Z,13.57
2024-04-30T02:52:16.929Z,13.70
2024-04-30T02:54:44.733Z,13.64
2024-04-30T02:57:22.594Z,13.57
2024-04-30T02:59:50.035Z,13.67
2024-04-30T03:02:17.970Z,13.33
2024-04-30T03:04:47.465Z,13.55
2024-04-30T03:07:26.438Z,13.60
2024-04-30T03:09:53.598Z,13.73
2024-04-30T03:12:20.785Z,13.75
2024-04-30T03:14:47.945Z,13.85
2024-04-30T03:17:15.832Z,13.82
2024-04-30T03:19:42.928Z,13.92
2024-04-30T03:22:12.670Z,14.04
2024-04-30T03:24:42.198Z,14.05
2024-04-30T03:27:09.571Z,14.07
2024-04-30T03:29:36.510Z,14.05
2024-04-30T03:32:03.484Z,14.05
2024-04-30T03:34:30.496Z,13.99
2024-04-30T03:36:59.697Z,14.05
2024-04-30T03:39:26.620Z,13.95
2024-04-30T03:41:58.193Z,13.97
2024-04-30T03:44:25.000Z,13.77
2024-04-30T03:46:51.918Z,13.66
2024-04-30T03:49:25.276Z,13.80
2024-04-30T03:51:52.207Z,13.75
2024-04-30T03:57:08.376Z,13.31
2024-04-30T03:59:41.064Z,13.43
2024-04-30T04:02:11.682Z,13.49
2024-04-30T04:04:40.778Z,13.71
2024-04-30T04:07:07.461Z,13.88
2024-04-30T04:09:34.087Z,13.93
2024-04-30T04:12:00.788Z,14.01
2024-04-30T04:14:27.361Z,14.01
2024-04-30T04:16:53.902Z,14.00
2024-04-30T04:19:20.478Z,14.03
2024-04-30T04:21:47.047Z,13.95
2024-04-30T04:24:13.632Z,13.29
2024-04-30T04:26:43.356Z,13.56
2024-04-30T04:29:09.916Z,13.67
2024-04-30T04:31:43.358Z,13.80
2024-04-30T04:34:10.356Z,13.50
2024-04-30T04:36:47.184Z,13.55
2024-04-30T04:39:19.552Z,13.32
2024-04-30T04:42:01.128Z,13.44
2024-04-30T04:44:31.870Z,13.63
2024-04-30T04:46:58.856Z,13.73
2024-04-30T04:49:25.868Z,13.85
2024-04-30T04:51:57.383Z,13.84
2024-04-30T04:54:24.519Z,13.87
2024-04-30T04:56:51.982Z,13.89
2024-04-30T04:59:21.542Z,13.95
2024-04-30T05:01:48.528Z,13.84
2024-04-30T05:04:15.708Z,14.02
2024-04-30T05:06:42.369Z,14.01
2024-04-30T05:09:12.226Z,13.92
2024-04-30T05:11:42.088Z,14.02
2024-04-30T05:14:08.722Z,14.23
2024-04-30T05:16:36.410Z,14.03
2024-04-30T05:19:03.144Z,14.09
2024-04-30T05:21:29.766Z,14.18
2024-04-30T05:24:01.219Z,14.32
2024-04-30T05:26:28.729Z,14.20
2024-04-30T05:28:55.489Z,14.51
2024-04-30T05:31:22.126Z,14.66
2024-04-30T05:33:49.384Z,14.70
2024-04-30T05:36:16.569Z,14.85
2024-04-30T05:38:43.264Z,14.88
2024-04-30T05:41:09.865Z,14.82
2024-04-30T05:43:39.622Z,14.25
2024-04-30T05:46:12.426Z,13.87
2024-04-30T05:48:39.757Z,13.60
2024-04-30T05:51:07.680Z,14.13
2024-04-30T05:53:37.228Z,14.34
2024-04-30T05:56:04.078Z,14.66
2024-04-30T05:58:34.276Z,14.42
2024-04-30T06:01:11.505Z,14.36
2024-04-30T06:03:39.338Z,14.68
2024-04-30T06:06:08.907Z,14.01
2024-04-30T06:08:38.797Z,13.94
2024-04-30T06:11:07.431Z,14.39
2024-04-30T06:13:35.727Z,14.66
2024-04-30T06:16:05.659Z,14.57
2024-04-30T06:18:35.387Z,14.26
2024-04-30T06:21:11.755Z,14.49
2024-04-30T06:23:41.732Z,14.81
2024-04-30T06:26:09.592Z,14.77
2024-04-30T06:28:42.747Z,14.60
2024-04-30T06:31:09.427Z,14.32
2024-04-30T06:33:36.589Z,14.72
2024-04-30T06:36:03.256Z,15.18
2024-04-30T06:38:35.861Z,14.89
2024-04-30T06:41:02.672Z,15.27
2024-04-30T06:43:29.388Z,15.04
2024-04-30T06:45:56.217Z,15.23
2024-04-30T06:48:28.478Z,15.09
2024-04-30T06:50:58.390Z,15.19
2024-04-30T06:53:25.435Z,15.17
2024-04-30T06:55:55.292Z,14.88
2024-04-30T06:58:24.001Z,14.88
2024-04-30T07:00:50.676Z,14.88
2024-04-30T07:03:25.010Z,15.20
2024-04-30T07:05:54.212Z,15.08
2024-04-30T07:08:23.704Z,14.99
2024-04-30T07:10:51.747Z,15.05
2024-04-30T07:13:23.635Z,14.92
2024-04-30T07:15:57.256Z,15.27
2024-04-30T07:18:24.738Z,15.45
2024-04-30T07:21:00.437Z,15.51
2024-04-30T07:23:27.592Z,15.76
2024-04-30T07:25:57.937Z,16.02
2024-04-30T07:28:25.162Z,16.42
2024-04-30T07:30:54.665Z,16.54
2024-04-30T07:33:26.328Z,15.97
2024-04-30T07:35:56.545Z,15.95
2024-04-30T07:38:38.148Z,15.83
2024-04-30T07:41:11.467Z,15.67
2024-04-30T07:43:38.781Z,15.68
2024-04-30T07:46:09.556Z,16.14
2024-04-30T07:48:39.967Z,16.09
2024-04-30T07:51:09.429Z,15.92
2024-04-30T07:53:37.253Z,15.68
2024-04-30T07:56:04.180Z,15.68
2024-04-30T07:58:34.174Z,15.60
2024-04-30T08:01:07.075Z,15.44
2024-04-30T08:03:34.616Z,14.87
2024-04-30T08:06:21.112Z,15.31
2024-04-30T08:08:50.344Z,15.31
2024-04-30T08:11:20.537Z,15.59
2024-04-30T08:13:59.054Z,15.94
2024-04-30T08:19:07.660Z,16.28
2024-04-30T08:21:37.538Z,16.24
2024-04-30T08:24:05.500Z,16.28
2024-04-30T08:26:36.340Z,16.84
2024-04-30T08:29:02.964Z,16.54
2024-04-30T08:31:30.165Z,16.78
2024-04-30T08:34:02.817Z,16.56
2024-04-30T08:36:31.257Z,16.74
2024-04-30T08:39:02.937Z,17.09
2024-04-30T08:41:32.919Z,17.29
2024-04-30T08:44:00.299Z,17.65
2024-04-30T08:46:33.891Z,17.79
2024-04-30T08:49:17.754Z,18.46
2024-04-30T08:51:51.274Z,20.42
2024-04-30T08:54:20.793Z,21.51
2024-04-30T08:56:48.819Z,22.40
2024-04-30T08:59:16.108Z,22.13
2024-04-30T09:01:46.696Z,22.63
2024-04-30T09:04:14.021Z,23.39
2024-04-30T09:06:46.576Z,22.83
2024-04-30T09:09:17.679Z,23.71
2024-04-30T09:11:44.702Z,22.96
2024-04-30T09:14:11.773Z,23.62
2024-04-30T09:16:40.412Z,23.40
2024-04-30T09:19:09.416Z,22.91
2024-04-30T09:21:36.418Z,22.76
2024-04-30T09:24:13.505Z,21.85
2024-04-30T09:26:41.540Z,21.15
2024-04-30T09:29:09.752Z,21.41
2024-04-30T09:31:37.566Z,21.16
2024-04-30T09:34:04.788Z,21.30
2024-04-30T09:36:36.430Z,21.46
2024-04-30T09:39:06.450Z,20.52
2024-04-30T09:41:39.847Z,21.65
2024-04-30T09:44:10.066Z,21.83
2024-04-30T09:46:39.717Z,20.58
2024-04-30T09:49:08.699Z,20.56
2024-04-30T09:51:36.737Z,21.47
2024-04-30T09:54:04.206Z,20.78
2024-04-30T09:56:31.213Z,21.18
2024-04-30T09:58:58.637Z,21.80
2024-04-30T10:01:25.847Z,22.58
2024-04-30T10:03:52.904Z,22.63
2024-04-30T10:06:22.890Z,22.27
2024-04-30T10:08:50.170Z,22.24
2024-04-30T10:11:17.215Z,22.03
2024-04-30T10:13:43.930Z,21.99
2024-04-30T10:16:10.639Z,21.19
2024-04-30T10:18:37.236Z,21.02
2024-04-30T10:21:03.993Z,21.78
2024-04-30T10:23:33.798Z,22.01
2024-04-30T10:26:00.402Z,22.44
2024-04-30T10:28:27.019Z,22.29
2024-04-30T10:31:13.079Z,22.48
2024-04-30T10:33:40.211Z,22.43
2024-04-30T10:36:07.172Z,24.62
2024-04-30T10:38:33.804Z,23.56
2024-04-30T10:41:00.517Z,24.95
2024-04-30T10:43:33.112Z,24.54
2024-04-30T10:45:59.702Z,24.70
2024-04-30T10:48:28.557Z,25.28
2024-04-30T10:50:55.207Z,24.81
2024-04-30T10:53:21.771Z,24.31
2024-04-30T10:55:51.569Z,23.20
2024-04-30T10:58:18.299Z,24.11
2024-04-30T11:00:45.082Z,24.11
2024-04-30T11:03:11.680Z,23.57
2024-04-30T11:05:38.595Z,23.36
2024-04-30T11:08:05.494Z,23.62
2024-04-30T11:10:33.471Z,22.32
2024-04-30T11:13:00.722Z,21.82
2024-04-30T11:15:34.220Z,20.92
2024-04-30T11:18:08.053Z,20.82
2024-04-30T11:20:35.170Z,19.99
2024-04-30T11:23:02.732Z,19.45
2024-04-30T11:25:32.238Z,18.44
2024-04-30T11:28:03.976Z,18.70
2024-04-30T11:30:31.236Z,18.89
2024-04-30T11:32:58.394Z,18.41
2024-04-30T11:35:25.532Z,18.49
2024-04-30T11:37:52.856Z,18.84
2024-04-30T11:40:30.997Z,18.45
2024-04-30T11:42:57.998Z,19.09
2024-04-30T11:45:25.285Z,18.66
2024-04-30T11:47:53.309Z,19.13
2024-04-30T11:50:20.644Z,19.70
2024-04-30T11:52:47.775Z,19.76
2024-04-30T11:55:18.651Z,19.92
2024-04-30T11:57:45.844Z,19.65
2024-04-30T12:00:13.019Z,20.28
2024-04-30T12:02:40.153Z,20.82
2024-04-30T12:05:07.539Z,20.84
2024-04-30T12:07:36.469Z,20.05
2024-04-30T12:10:03.518Z,19.69
2024-04-30T12:12:31.189Z,20.15
2024-04-30T12:14:58.237Z,20.68
2024-04-30T12:17:26.516Z,20.94
2024-04-30T12:19:54.059Z,21.23
2024-04-30T12:22:21.138Z,20.85
2024-04-30T12:24:48.785Z,20.33
2024-04-30T12:27:21.832Z,20.37
2024-04-30T12:29:51.410Z,21.08
2024-04-30T12:32:18.006Z,21.01
2024-04-30T12:34:48.015Z,20.92
2024-04-30T12:37:14.906Z,21.26
2024-04-30T12:39:43.691Z,21.70
2024-04-30T12:42:10.478Z,21.99
2024-04-30T12:44:37.066Z,22.14
2024-04-30T12:47:03.660Z,21.88
2024-04-30T12:49:32.987Z,21.85
2024-04-30T12:52:13.112Z,21.54
2024-04-30T12:54:40.155Z,20.88
2024-04-30T12:57:07.299Z,20.52
2024-04-30T12:59:38.175Z,19.97
2024-04-30T13:02:05.446Z,19.58
2024-04-30T13:04:32.210Z,19.50
2024-04-30T13:06:59.076Z,19.72
2024-04-30T13:09:25.711Z,19.88
2024-04-30T13:11:52.288Z,19.83
2024-04-30T13:14:19.073Z,19.80
2024-04-30T13:16:45.731Z,19.59
2024-04-30T13:19:15.853Z,20.06
2024-04-30T13:21:42.816Z,19.87
2024-04-30T13:24:09.698Z,19.61
2024-04-30T13:26:42.273Z,19.80
2024-04-30T13:29:12.451Z,19.85
2024-04-30T13:31:39.540Z,19.63
2024-04-30T13:34:06.674Z,19.82
2024-04-30T13:36:33.699Z,19.86
2024-04-30T13:39:04.329Z,20.00
2024-04-30T13:41:34.889Z,19.94
2024-04-30T13:44:02.628Z,19.80
2024-04-30T13:46:39.836Z,20.29
2024-04-30T13:49:06.989Z,20.23
2024-04-30T13:51:34.684Z,20.22
2024-04-30T13:54:05.022Z,20.65
2024-04-30T13:56:32.093Z,20.62
2024-04-30T13:59:08.235Z,20.80
2024-04-30T14:01:36.273Z,20.33
2024-04-30T14:04:05.208Z,20.00
2024-04-30T14:06:32.312Z,19.68
2024-04-30T14:08:59.344Z,19.68
2024-04-30T14:11:29.151Z,19.65
2024-04-30T14:13:55.836Z,19.90
2024-04-30T14:16:22.575Z,20.29
2024-04-30T14:18:49.420Z,20.35
2024-04-30T14:21:16.020Z,20.61
2024-04-30T14:23:42.643Z,20.67
2024-04-30T14:26:09.565Z,20.73
2024-04-30T14:28:36.527Z,21.05
2024-04-30T14:31:03.231Z,21.05
2024-04-30T14:33:32.995Z,21.06
2024-04-30T14:36:05.618Z,21.40
2024-04-30T14:38:32.277Z,21.22
2024-04-30T14:40:58.906Z,20.94
2024-04-30T14:43:28.612Z,21.05
2024-04-30T14:45:55.518Z,21.38
2024-04-30T14:48:22.186Z,21.49
2024-04-30T14:50:51.891Z,21.57
2024-04-30T14:53:18.783Z,20.96
2024-04-30T14:55:51.494Z,20.27
2024-04-30T14:58:18.084Z,19.86
2024-04-30T15:00:44.803Z,19.80
2024-04-30T15:03:12.076Z,19.74
2024-04-30T15:05:39.101Z,19.94
2024-04-30T15:08:05.734Z,19.87
2024-04-30T15:10:33.556Z,20.29
2024-04-30T15:13:00.662Z,20.33
2024-04-30T15:15:33.716Z,20.40
2024-04-30T15:18:00.953Z,20.27
2024-04-30T15:20:28.142Z,19.71
2024-04-30T15:22:55.099Z,19.60
2024-04-30T15:25:22.629Z,20.19
2024-04-30T15:27:49.854Z,20.24
2024-04-30T15:30:20.087Z,19.55
2024-04-30T15:32:50.281Z,20.04
2024-04-30T15:35:17.387Z,20.45
2024-04-30T15:37:46.584Z,20.55
2024-04-30T15:40:13.684Z,20.26
2024-04-30T15:42:40.684Z,20.03
2024-04-30T15:45:15.888Z,20.30
2024-04-30T15:47:44.057Z,20.20
2024-04-30T15:50:11.047Z,20.45
2024-04-30T15:52:38.236Z,20.28
2024-04-30T15:55:12.148Z,20.10
2024-04-30T15:57:39.389Z,19.82
2024-04-30T16:00:07.446Z,19.97
2024-04-30T16:02:34.484Z,20.01
2024-04-30T16:05:01.816Z,20.06
2024-04-30T16:07:31.147Z,20.16
2024-04-30T16:09:58.214Z,20.05
2024-04-30T16:12:25.370Z,19.64
2024-04-30T16:14:53.656Z,20.05
2024-04-30T16:17:20.325Z,20.16
2024-04-30T16:19:47.219Z,20.06
2024-04-30T16:22:13.909Z,20.38
2024-04-30T16:24:44.188Z,20.03
2024-04-30T16:27:10.790Z,20.54
2024-04-30T16:29:37.421Z,20.69
2024-04-30T16:32:09.520Z,20.74
2024-04-30T16:34:36.755Z,21.13
2024-04-30T16:37:04.017Z,21.00
2024-04-30T16:39:31.710Z,20.59
2024-04-30T16:41:58.311Z,20.79
2024-04-30T16:44:33.105Z,20.87
2024-04-30T16:47:10.227Z,20.11
2024-04-30T16:49:36.881Z,20.23
2024-04-30T16:52:03.542Z,20.17
2024-04-30T16:54:32.910Z,20.02
2024-04-30T16:56:59.839Z,20.18
2024-04-30T16:59:32.452Z,20.41
2024-04-30T17:01:59.104Z,20.48
2024-04-30T17:04:25.836Z,20.53
2024-04-30T17:06:52.813Z,20.47
2024-04-30T17:09:19.865Z,20.37
2024-04-30T17:11:46.485Z,20.16
2024-04-30T17:14:13.057Z,20.28
2024-04-30T17:16:40.262Z,20.34
2024-04-30T17:19:09.528Z,20.29
2024-04-30T17:21:39.286Z,20.10
2024-04-30T17:24:09.053Z,20.04
2024-04-30T17:26:35.981Z,19.97
2024-04-30T17:29:02.931Z,19.89
2024-04-30T17:31:30.083Z,19.89
2024-04-30T17:33:57.500Z,19.65
2024-04-30T17:36:24.568Z,19.76
2024-04-30T17:38:51.555Z,19.82
2024-04-30T17:41:18.949Z,19.91
2024-04-30T17:43:46.054Z,20.10
2024-04-30T17:46:13.020Z,20.20
2024-04-30T17:48:40.103Z,20.13
2024-04-30T17:51:07.108Z,20.34
2024-04-30T17:53:34.120Z,20.40
2024-04-30T17:56:01.078Z,20.23
2024-04-30T17:58:28.100Z,19.84
2024-04-30T18:00:55.264Z,19.94
2024-04-30T18:03:31.349Z,19.97
2024-04-30T18:05:58.323Z,20.12
2024-04-30T18:08:25.803Z,20.02
2024-04-30T18:10:54.435Z,19.93
2024-04-30T18:13:21.898Z,19.75
2024-04-30T18:15:48.984Z,19.66
2024-04-30T18:18:16.273Z,19.61
2024-04-30T18:20:43.289Z,19.76
2024-04-30T18:23:12.483Z,19.74
2024-04-30T18:25:39.711Z,19.44
2024-04-30T18:28:06.658Z,19.38
2024-04-30T18:30:33.728Z,19.14
2024-04-30T18:33:00.804Z,19.18
2024-04-30T18:35:27.797Z,19.35
2024-04-30T18:37:54.755Z,19.43
2024-04-30T18:40:27.708Z,19.27
2024-04-30T18:42:54.548Z,19.39
2024-04-30T18:45:21.117Z,19.29
2024-04-30T18:47:47.819Z,19.04
2024-04-30T18:50:17.475Z,18.60
2024-04-30T18:52:44.502Z,18.58
2024-04-30T18:55:11.069Z,18.57
2024-04-30T18:57:37.652Z,18.81
2024-04-30T19:00:04.280Z,18.79
2024-04-30T19:02:30.890Z,18.78
2024-04-30T19:04:57.537Z,18.79
2024-04-30T19:07:24.131Z,18.81
2024-04-30T19:09:50.911Z,18.79
2024-04-30T19:12:17.792Z,18.61
2024-04-30T19:14:44.492Z,18.56
2024-04-30T19:17:11.100Z,18.45
2024-04-30T19:19:37.802Z,18.60
2024-04-30T19:22:04.618Z,18.59
2024-04-30T19:24:31.262Z,18.65
2024-04-30T19:26:57.865Z,18.68
2024-04-30T19:29:24.416Z,18.75
2024-04-30T19:31:50.983Z,18.73
2024-04-30T19:34:17.656Z,18.74
2024-04-30T19:36:44.369Z,18.84
2024-04-30T19:39:11.007Z,18.76
2024-04-30T19:41:37.987Z,18.81
2024-04-30T19:44:04.927Z,18.71
2024-04-30T19:46:31.882Z,18.66
2024-04-30T19:48:58.919Z,18.56
2024-04-30T19:51:25.998Z,18.48
2024-04-30T19:53:53.104Z,18.38
2024-04-30T19:56:20.220Z,18.46
2024-04-30T19:58:50.055Z,18.37
2024-04-30T20:01:17.792Z,18.31
2024-04-30T20:03:44.513Z,18.41
2024-04-30T20:06:11.040Z,18.34
2024-04-30T20:08:37.574Z,18.31
2024-04-30T20:11:04.480Z,18.38
2024-04-30T20:13:31.339Z,18.44
2024-04-30T20:15:57.938Z,18.33
2024-04-30T20:18:24.556Z,18.20
2024-04-30T20:20:51.194Z,18.34
2024-04-30T20:23:20.702Z,18.20
2024-04-30T20:25:47.320Z,18.22
2024-04-30T20:28:13.996Z,18.23
2024-04-30T20:30:41.636Z,18.20
2024-04-30T20:33:12.179Z,18.21
2024-04-30T20:35:41.909Z,18.02
2024-04-30T20:38:11.584Z,17.93
2024-04-30T20:40:38.154Z,17.85
2024-04-30T20:43:07.745Z,17.61
2024-04-30T20:45:37.462Z,17.90
2024-04-30T20:48:07.140Z,17.93
2024-04-30T20:50:33.807Z,17.89
2024-04-30T20:53:00.439Z,17.85
2024-04-30T20:55:26.965Z,17.83
2024-04-30T20:57:53.537Z,17.65
2024-04-30T21:00:20.555Z,17.33
2024-04-30T21:02:47.853Z,17.57
2024-04-30T21:05:15.914Z,17.58
2024-04-30T21:07:42.616Z,17.55
2024-04-30T21:10:09.515Z,17.63
2024-04-30T21:12:36.617Z,17.45
2024-04-30T21:15:03.236Z,17.42
2024-04-30T21:17:29.894Z,17.40
2024-04-30T21:20:01.054Z,17.28
2024-04-30T21:22:27.675Z,17.21
2024-04-30T21:24:54.485Z,17.26
2024-04-30T21:27:22.419Z,17.36
2024-04-30T21:29:49.018Z,17.18
2024-04-30T21:32:15.577Z,17.37
2024-04-30T21:34:44.163Z,17.43
2024-04-30T21:37:10.818Z,17.51
2024-04-30T21:39:37.513Z,17.60
2024-04-30T21:42:04.292Z,17.47
2024-04-30T21:44:30.901Z,17.45
2024-04-30T21:46:57.606Z,17.66
2024-04-30T21:49:25.074Z,17.66
2024-04-30T21:51:51.809Z,17.50
2024-04-30T21:54:18.395Z,17.40
2024-04-30T21:56:45.084Z,17.16
2024-04-30T21:59:11.644Z,16.89
2024-04-30T22:01:38.329Z,17.01
2024-04-30T22:04:05.530Z,16.80
2024-04-30T22:06:32.782Z,16.75
2024-04-30T22:08:59.735Z,16.85
2024-04-30T22:11:26.724Z,16.88
2024-04-30T22:13:53.657Z,16.84
2024-04-30T22:16:20.565Z,16.94
2024-04-30T22:18:47.600Z,17.11
2024-04-30T22:21:18.306Z,17.31
2024-04-30T22:23:46.517Z,17.31
2024-04-30T22:26:13.525Z,17.35
2024-04-30T22:28:40.998Z,17.33
2024-04-30T22:31:08.078Z,17.49
2024-04-30T22:33:35.163Z,17.40
2024-04-30T22:36:02.160Z,16.97
2024-04-30T22:38:29.112Z,16.97
2024-04-30T22:40:56.089Z,17.00
2024-04-30T22:43:23.195Z,17.09
2024-04-30T22:45:50.301Z,17.29
2024-04-30T22:48:17.468Z,17.37
2024-04-30T22:50:44.475Z,17.28
2024-04-30T22:53:11.413Z,17.11
2024-04-30T22:55:38.372Z,17.00
2024-04-30T22:58:05.585Z,16.84
2024-04-30T23:00:32.645Z,16.85
2024-04-30T23:02:59.679Z,16.78
2024-04-30T23:05:26.608Z,16.71
2024-04-30T23:07:53.534Z,16.80
2024-04-30T23:10:23.298Z,16.82
2024-04-30T23:12:50.325Z,16.67
2024-04-30T23:15:17.575Z,16.64
2024-04-30T23:17:44.779Z,16.62
2024-04-30T23:20:11.799Z,16.68
2024-04-30T23:22:38.736Z,16.58
2024-04-30T23:25:05.696Z,16.71
2024-04-30T23:27:35.378Z,16.52
2024-04-30T23:30:02.421Z,16.28
2024-04-30T23:32:31.915Z,16.36
2024-04-30T23:34:59.029Z,16.16
2024-04-30T23:37:25.952Z,16.31
2024-04-30T23:39:52.940Z,16.29
2024-04-30T23:42:23.204Z,16.21
2024-04-30T23:44:50.749Z,16.25
2024-04-30T23:47:17.708Z,16.29
2024-04-30T23:49:44.621Z,16.31
2024-04-30T23:52:11.694Z,16.05
2024-04-30T23:54:38.732Z,16.02
2024-04-30T23:57:05.680Z,16.05
2024-04-30T23:59:32.624Z,16.13
